sensor_id;sensor_type;location;lat;lon;timestamp;P1;durP1;ratioP1;P2;durP2;ratioP2
32196;SDS011;18697;42.770;23.400;2024-03-23T00:55:11;22.60;;;12.93;;
32196;SDS011;18697;42.770;23.400;2024-03-23T00:57:37;22.98;;;13.30;;
32196;SDS011;18697;42.770;23.400;2024-03-23T01:00:02;31.67;;;18.15;;
32196;SDS011;18697;42.770;23.400;2024-03-23T01:02:30;31.17;;;18.08;;
32196;SDS011;18697;42.770;23.400;2024-03-23T01:04:56;35.40;;;17.30;;
32196;SDS011;18697;42.770;23.400;2024-03-23T01:07:21;28.63;;;16.95;;
32196;SDS011;18697;42.770;23.400;2024-03-23T01:09:46;17.42;;;10.70;;
32196;SDS011;18697;42.770;23.400;2024-03-23T01:12:12;61.88;;;27.30;;
32196;SDS011;18697;42.770;23.400;2024-03-23T01:14:37;32.13;;;17.15;;
32196;SDS011;18697;42.770;23.400;2024-03-23T01:17:02;27.45;;;16.23;;
32196;SDS011;18697;42.770;23.400;2024-03-23T01:19:28;22.35;;;11.77;;
32196;SDS011;18697;42.770;23.400;2024-03-23T01:21:53;15.48;;;9.80;;
32196;SDS011;18697;42.770;23.400;2024-03-23T01:24:18;12.35;;;7.90;;
32196;SDS011;18697;42.770;23.400;2024-03-23T01:26:44;10.95;;;7.28;;
32196;SDS011;18697;42.770;23.400;2024-03-23T01:29:09;7.57;;;5.68;;
32196;SDS011;18697;42.770;23.400;2024-03-23T01:31:34;10.85;;;6.53;;
32196;SDS011;18697;42.770;23.400;2024-03-23T01:34:00;10.50;;;6.63;;
32196;SDS011;18697;42.770;23.400;2024-03-23T01:36:26;11.10;;;6.78;;
32196;SDS011;18697;42.770;23.400;2024-03-23T01:38:51;11.50;;;6.90;;
32196;SDS011;18697;42.770;23.400;2024-03-23T01:41:17;11.05;;;6.72;;
32196;SDS011;18697;42.770;23.400;2024-03-23T01:43:42;14.02;;;8.38;;
32196;SDS011;18697;42.770;23.400;2024-03-23T01:46:08;17.10;;;8.82;;
32196;SDS011;18697;42.770;23.400;2024-03-23T01:48:33;17.92;;;8.95;;
32196;SDS011;18697;42.770;23.400;2024-03-23T01:50:59;17.80;;;9.32;;
32196;SDS011;18697;42.770;23.400;2024-03-23T01:53:24;16.00;;;8.38;;
32196;SDS011;18697;42.770;23.400;2024-03-23T01:55:50;15.95;;;8.48;;
32196;SDS011;18697;42.770;23.400;2024-03-23T01:58:16;21.98;;;12.60;;
32196;SDS011;18697;42.770;23.400;2024-03-23T02:00:41;13.48;;;8.82;;
32196;SDS011;18697;42.770;23.400;2024-03-23T02:03:26;13.43;;;7.88;;
32196;SDS011;18697;42.770;23.400;2024-03-23T02:05:52;12.98;;;7.85;;
32196;SDS011;18697;42.770;23.400;2024-03-23T02:08:20;10.45;;;7.35;;
32196;SDS011;18697;42.770;23.400;2024-03-23T02:10:47;12.95;;;7.20;;
32196;SDS011;18697;42.770;23.400;2024-03-23T02:13:14;11.40;;;7.78;;
32196;SDS011;18697;42.770;23.400;2024-03-23T02:15:40;12.25;;;8.10;;
32196;SDS011;18697;42.770;23.400;2024-03-23T02:18:09;12.57;;;7.47;;
32196;SDS011;18697;42.770;23.400;2024-03-23T02:20:34;13.60;;;8.60;;
32196;SDS011;18697;42.770;23.400;2024-03-23T02:23:01;14.32;;;9.20;;
32196;SDS011;18697;42.770;23.400;2024-03-23T02:25:26;13.75;;;8.30;;
32196;SDS011;18697;42.770;23.400;2024-03-23T02:27:52;10.68;;;7.95;;
32196;SDS011;18697;42.770;23.400;2024-03-23T02:30:19;9.88;;;7.55;;
32196;SDS011;18697;42.770;23.400;2024-03-23T02:32:45;13.75;;;7.53;;
32196;SDS011;18697;42.770;23.400;2024-03-23T02:35:10;13.27;;;7.53;;
32196;SDS011;18697;42.770;23.400;2024-03-23T02:37:35;12.00;;;7.65;;
32196;SDS011;18697;42.770;23.400;2024-03-23T02:40:01;12.50;;;7.82;;
32196;SDS011;18697;42.770;23.400;2024-03-23T02:42:26;14.25;;;8.18;;
32196;SDS011;18697;42.770;23.400;2024-03-23T02:44:52;10.88;;;8.43;;
32196;SDS011;18697;42.770;23.400;2024-03-23T02:47:18;19.33;;;9.27;;
32196;SDS011;18697;42.770;23.400;2024-03-23T02:49:44;19.77;;;11.45;;
32196;SDS011;18697;42.770;23.400;2024-03-23T02:52:09;22.05;;;12.10;;
32196;SDS011;18697;42.770;23.400;2024-03-23T02:54:34;16.77;;;10.82;;
32196;SDS011;18697;42.770;23.400;2024-03-23T02:57:00;19.17;;;10.32;;
32196;SDS011;18697;42.770;23.400;2024-03-23T02:59:25;17.92;;;10.15;;
32196;SDS011;18697;42.770;23.400;2024-03-23T03:01:50;17.75;;;10.60;;
32196;SDS011;18697;42.770;23.400;2024-03-23T03:04:16;19.52;;;11.90;;
32196;SDS011;18697;42.770;23.400;2024-03-23T03:06:41;19.95;;;12.10;;
32196;SDS011;18697;42.770;23.400;2024-03-23T03:09:06;17.52;;;10.85;;
32196;SDS011;18697;42.770;23.400;2024-03-23T03:11:32;14.60;;;9.57;;
32196;SDS011;18697;42.770;23.400;2024-03-23T03:13:57;18.65;;;11.13;;
32196;SDS011;18697;42.770;23.400;2024-03-23T03:16:25;17.92;;;10.40;;
32196;SDS011;18697;42.770;23.400;2024-03-23T03:18:50;19.65;;;11.40;;
32196;SDS011;18697;42.770;23.400;2024-03-23T03:21:17;18.45;;;10.98;;
32196;SDS011;18697;42.770;23.400;2024-03-23T03:23:44;20.20;;;12.38;;
32196;SDS011;18697;42.770;23.400;2024-03-23T03:26:09;24.98;;;15.82;;
32196;SDS011;18697;42.770;23.400;2024-03-23T03:28:35;24.20;;;15.65;;
32196;SDS011;18697;42.770;23.400;2024-03-23T03:31:00;22.25;;;13.30;;
32196;SDS011;18697;42.770;23.400;2024-03-23T03:33:28;31.42;;;19.20;;
32196;SDS011;18697;42.770;23.400;2024-03-23T03:35:54;26.40;;;15.15;;
32196;SDS011;18697;42.770;23.400;2024-03-23T03:38:20;28.88;;;16.38;;
32196;SDS011;18697;42.770;23.400;2024-03-23T03:40:46;31.33;;;17.00;;
32196;SDS011;18697;42.770;23.400;2024-03-23T03:43:11;25.23;;;14.27;;
32196;SDS011;18697;42.770;23.400;2024-03-23T03:45:37;26.42;;;14.93;;
32196;SDS011;18697;42.770;23.400;2024-03-23T03:48:03;22.38;;;13.20;;
32196;SDS011;18697;42.770;23.400;2024-03-23T03:50:28;24.25;;;12.95;;
32196;SDS011;18697;42.770;23.400;2024-03-23T03:52:53;28.85;;;14.48;;
32196;SDS011;18697;42.770;23.400;2024-03-23T03:55:19;53.50;;;24.42;;
32196;SDS011;18697;42.770;23.400;2024-03-23T03:57:44;47.83;;;21.13;;
32196;SDS011;18697;42.770;23.400;2024-03-23T04:00:10;49.92;;;23.02;;
32196;SDS011;18697;42.770;23.400;2024-03-23T04:02:36;54.28;;;26.10;;
32196;SDS011;18697;42.770;23.400;2024-03-23T04:05:03;50.70;;;23.58;;
32196;SDS011;18697;42.770;23.400;2024-03-23T04:07:28;48.88;;;21.02;;
32196;SDS011;18697;42.770;23.400;2024-03-23T04:09:53;78.78;;;39.83;;
32196;SDS011;18697;42.770;23.400;2024-03-23T04:12:19;94.03;;;56.58;;
32196;SDS011;18697;42.770;23.400;2024-03-23T04:14:45;54.83;;;28.77;;
32196;SDS011;18697;42.770;23.400;2024-03-23T04:17:10;50.28;;;26.83;;
32196;SDS011;18697;42.770;23.400;2024-03-23T04:19:36;50.08;;;24.33;;
32196;SDS011;18697;42.770;23.400;2024-03-23T04:22:01;39.15;;;20.83;;
32196;SDS011;18697;42.770;23.400;2024-03-23T04:24:27;33.65;;;17.70;;
32196;SDS011;18697;42.770;23.400;2024-03-23T04:26:52;37.47;;;18.25;;
32196;SDS011;18697;42.770;23.400;2024-03-23T04:29:18;39.92;;;17.63;;
32196;SDS011;18697;42.770;23.400;2024-03-23T04:31:44;39.38;;;18.88;;
32196;SDS011;18697;42.770;23.400;2024-03-23T04:34:09;34.92;;;17.42;;
32196;SDS011;18697;42.770;23.400;2024-03-23T04:36:34;33.83;;;16.25;;
32196;SDS011;18697;42.770;23.400;2024-03-23T04:39:00;34.08;;;16.90;;
32196;SDS011;18697;42.770;23.400;2024-03-23T04:41:25;31.67;;;16.58;;
32196;SDS011;18697;42.770;23.400;2024-03-23T04:43:51;37.58;;;15.70;;
32196;SDS011;18697;42.770;23.400;2024-03-23T04:46:16;32.65;;;15.73;;
32196;SDS011;18697;42.770;23.400;2024-03-23T04:48:41;46.13;;;21.52;;
32196;SDS011;18697;42.770;23.400;2024-03-23T04:51:09;47.90;;;22.35;;
32196;SDS011;18697;42.770;23.400;2024-03-23T04:53:36;52.47;;;23.48;;
32196;SDS011;18697;42.770;23.400;2024-03-23T04:56:02;54.65;;;25.15;;
32196;SDS011;18697;42.770;23.400;2024-03-23T04:58:29;48.17;;;25.40;;
32196;SDS011;18697;42.770;23.400;2024-03-23T05:00:54;50.75;;;26.85;;
32196;SDS011;18697;42.770;23.400;2024-03-23T05:03:21;40.08;;;22.02;;
32196;SDS011;18697;42.770;23.400;2024-03-23T05:05:47;34.67;;;19.75;;
32196;SDS011;18697;42.770;23.400;2024-03-23T05:08:13;30.25;;;16.73;;
32196;SDS011;18697;42.770;23.400;2024-03-23T05:10:39;29.38;;;18.15;;
32196;SDS011;18697;42.770;23.400;2024-03-23T05:13:04;47.67;;;21.65;;
32196;SDS011;18697;42.770;23.400;2024-03-23T05:15:29;36.95;;;19.02;;
32196;SDS011;18697;42.770;23.400;2024-03-23T05:17:55;33.95;;;18.88;;
32196;SDS011;18697;42.770;23.400;2024-03-23T05:20:20;37.20;;;22.73;;
32196;SDS011;18697;42.770;23.400;2024-03-23T05:22:46;44.45;;;23.33;;
32196;SDS011;18697;42.770;23.400;2024-03-23T05:25:11;41.40;;;22.98;;
32196;SDS011;18697;42.770;23.400;2024-03-23T05:27:37;59.22;;;29.50;;
32196;SDS011;18697;42.770;23.400;2024-03-23T05:30:03;64.03;;;33.85;;
32196;SDS011;18697;42.770;23.400;2024-03-23T05:32:29;65.20;;;33.55;;
32196;SDS011;18697;42.770;23.400;2024-03-23T05:34:54;61.38;;;32.38;;
32196;SDS011;18697;42.770;23.400;2024-03-23T05:37:23;51.65;;;26.25;;
32196;SDS011;18697;42.770;23.400;2024-03-23T05:39:49;49.72;;;23.77;;
32196;SDS011;18697;42.770;23.400;2024-03-23T05:42:17;47.08;;;23.73;;
32196;SDS011;18697;42.770;23.400;2024-03-23T05:44:47;30.02;;;16.67;;
32196;SDS011;18697;42.770;23.400;2024-03-23T05:47:12;28.63;;;16.85;;
32196;SDS011;18697;42.770;23.400;2024-03-23T05:49:39;23.30;;;15.60;;
32196;SDS011;18697;42.770;23.400;2024-03-23T05:52:07;24.50;;;14.93;;
32196;SDS011;18697;42.770;23.400;2024-03-23T05:54:35;30.33;;;15.75;;
32196;SDS011;18697;42.770;23.400;2024-03-23T05:57:01;28.77;;;15.68;;
32196;SDS011;18697;42.770;23.400;2024-03-23T05:59:27;30.27;;;15.38;;
32196;SDS011;18697;42.770;23.400;2024-03-23T06:01:52;33.10;;;15.30;;
32196;SDS011;18697;42.770;23.400;2024-03-23T06:04:18;24.08;;;14.98;;
32196;SDS011;18697;42.770;23.400;2024-03-23T06:06:43;24.95;;;14.40;;
32196;SDS011;18697;42.770;23.400;2024-03-23T06:09:09;22.52;;;14.23;;
32196;SDS011;18697;42.770;23.400;2024-03-23T06:11:34;26.42;;;14.40;;
32196;SDS011;18697;42.770;23.400;2024-03-23T06:13:59;24.15;;;14.93;;
32196;SDS011;18697;42.770;23.400;2024-03-23T06:16:25;24.52;;;15.38;;
32196;SDS011;18697;42.770;23.400;2024-03-23T06:18:52;25.05;;;14.90;;
32196;SDS011;18697;42.770;23.400;2024-03-23T06:21:17;28.40;;;13.75;;
32196;SDS011;18697;42.770;23.400;2024-03-23T06:23:43;30.63;;;15.65;;
32196;SDS011;18697;42.770;23.400;2024-03-23T06:26:13;24.65;;;14.77;;
32196;SDS011;18697;42.770;23.400;2024-03-23T06:28:38;24.10;;;14.15;;
32196;SDS011;18697;42.770;23.400;2024-03-23T06:31:08;27.05;;;14.48;;
32196;SDS011;18697;42.770;23.400;2024-03-23T06:33:34;22.48;;;13.73;;
32196;SDS011;18697;42.770;23.400;2024-03-23T06:35:59;37.72;;;14.63;;
32196;SDS011;18697;42.770;23.400;2024-03-23T06:38:25;18.52;;;12.18;;
32196;SDS011;18697;42.770;23.400;2024-03-23T06:40:50;18.67;;;11.20;;
32196;SDS011;18697;42.770;23.400;2024-03-23T06:43:17;21.55;;;11.52;;
32196;SDS011;18697;42.770;23.400;2024-03-23T06:45:43;21.88;;;11.48;;
32196;SDS011;18697;42.770;23.400;2024-03-23T06:48:09;21.63;;;12.30;;
32196;SDS011;18697;42.770;23.400;2024-03-23T06:50:34;16.45;;;11.32;;
32196;SDS011;18697;42.770;23.400;2024-03-23T06:53:00;15.45;;;10.48;;
32196;SDS011;18697;42.770;23.400;2024-03-23T06:55:27;15.90;;;10.63;;
32196;SDS011;18697;42.770;23.400;2024-03-23T06:57:53;18.30;;;11.30;;
32196;SDS011;18697;42.770;23.400;2024-03-23T07:00:18;24.13;;;11.50;;
32196;SDS011;18697;42.770;23.400;2024-03-23T07:02:44;18.13;;;11.57;;
32196;SDS011;18697;42.770;23.400;2024-03-23T07:05:09;23.65;;;11.18;;
32196;SDS011;18697;42.770;23.400;2024-03-23T07:07:35;19.30;;;11.13;;
32196;SDS011;18697;42.770;23.400;2024-03-23T07:10:01;15.60;;;11.30;;
32196;SDS011;18697;42.770;23.400;2024-03-23T07:12:28;25.10;;;12.07;;
32196;SDS011;18697;42.770;23.400;2024-03-23T07:14:53;19.45;;;12.10;;
32196;SDS011;18697;42.770;23.400;2024-03-23T07:17:18;23.52;;;12.60;;
32196;SDS011;18697;42.770;23.400;2024-03-23T07:19:44;16.52;;;11.32;;
32196;SDS011;18697;42.770;23.400;2024-03-23T07:24:35;22.27;;;11.63;;
32196;SDS011;18697;42.770;23.400;2024-03-23T07:27:00;20.58;;;12.13;;
32196;SDS011;18697;42.770;23.400;2024-03-23T07:29:27;27.20;;;12.32;;
32196;SDS011;18697;42.770;23.400;2024-03-23T07:31:53;18.60;;;11.90;;
32196;SDS011;18697;42.770;23.400;2024-03-23T07:34:19;25.30;;;12.70;;
32196;SDS011;18697;42.770;23.400;2024-03-23T07:39:10;16.80;;;11.52;;
32196;SDS011;18697;42.770;23.400;2024-03-23T07:41:36;24.10;;;11.70;;
32196;SDS011;18697;42.770;23.400;2024-03-23T07:44:02;18.92;;;11.57;;
32196;SDS011;18697;42.770;23.400;2024-03-23T07:46:27;21.65;;;11.20;;
32196;SDS011;18697;42.770;23.400;2024-03-23T07:48:52;18.15;;;11.57;;
32196;SDS011;18697;42.770;23.400;2024-03-23T07:51:20;21.27;;;12.10;;
32196;SDS011;18697;42.770;23.400;2024-03-23T07:53:47;19.15;;;11.35;;
32196;SDS011;18697;42.770;23.400;2024-03-23T07:56:13;24.58;;;11.93;;
32196;SDS011;18697;42.770;23.400;2024-03-23T07:58:49;25.35;;;10.88;;
32196;SDS011;18697;42.770;23.400;2024-03-23T08:01:15;20.83;;;10.02;;
32196;SDS011;18697;42.770;23.400;2024-03-23T08:03:42;29.20;;;12.05;;
32196;SDS011;18697;42.770;23.400;2024-03-23T08:06:11;21.73;;;10.77;;
32196;SDS011;18697;42.770;23.400;2024-03-23T08:08:42;23.88;;;10.98;;
32196;SDS011;18697;42.770;23.400;2024-03-23T08:11:08;15.50;;;9.88;;
32196;SDS011;18697;42.770;23.400;2024-03-23T08:13:34;16.42;;;10.95;;
32196;SDS011;18697;42.770;23.400;2024-03-23T08:16:01;18.90;;;11.52;;
32196;SDS011;18697;42.770;23.400;2024-03-23T08:18:28;20.95;;;10.65;;
32196;SDS011;18697;42.770;23.400;2024-03-23T08:23:26;25.05;;;11.27;;
32196;SDS011;18697;42.770;23.400;2024-03-23T08:25:57;18.48;;;10.60;;
32196;SDS011;18697;42.770;23.400;2024-03-23T08:28:25;16.83;;;9.68;;
32196;SDS011;18697;42.770;23.400;2024-03-23T08:30:52;14.63;;;8.63;;
32196;SDS011;18697;42.770;23.400;2024-03-23T08:33:18;11.57;;;7.65;;
32196;SDS011;18697;42.770;23.400;2024-03-23T08:35:52;17.77;;;7.57;;
32196;SDS011;18697;42.770;23.400;2024-03-23T08:38:19;9.93;;;6.40;;
32196;SDS011;18697;42.770;23.400;2024-03-23T08:40:44;10.15;;;6.95;;
32196;SDS011;18697;42.770;23.400;2024-03-23T08:45:35;10.88;;;6.60;;
32196;SDS011;18697;42.770;23.400;2024-03-23T08:48:00;8.68;;;6.55;;
32196;SDS011;18697;42.770;23.400;2024-03-23T08:50:25;9.80;;;6.45;;
32196;SDS011;18697;42.770;23.400;2024-03-23T08:52:51;10.45;;;6.90;;
32196;SDS011;18697;42.770;23.400;2024-03-23T08:55:16;13.95;;;7.15;;
32196;SDS011;18697;42.770;23.400;2024-03-23T08:57:41;13.00;;;7.35;;
32196;SDS011;18697;42.770;23.400;2024-03-23T09:00:07;11.98;;;6.85;;
32196;SDS011;18697;42.770;23.400;2024-03-23T09:02:34;15.80;;;7.47;;
32196;SDS011;18697;42.770;23.400;2024-03-23T09:04:59;16.63;;;8.00;;
32196;SDS011;18697;42.770;23.400;2024-03-23T09:07:29;13.02;;;7.85;;
32196;SDS011;18697;42.770;23.400;2024-03-23T09:09:55;11.23;;;7.50;;
32196;SDS011;18697;42.770;23.400;2024-03-23T09:12:20;11.68;;;7.35;;
32196;SDS011;18697;42.770;23.400;2024-03-23T09:14:46;11.45;;;7.43;;
32196;SDS011;18697;42.770;23.400;2024-03-23T09:17:11;17.65;;;8.20;;
32196;SDS011;18697;42.770;23.400;2024-03-23T09:19:36;16.70;;;7.43;;
32196;SDS011;18697;42.770;23.400;2024-03-23T09:22:02;13.40;;;7.22;;
32196;SDS011;18697;42.770;23.400;2024-03-23T09:24:27;13.15;;;7.00;;
32196;SDS011;18697;42.770;23.400;2024-03-23T09:26:53;16.85;;;7.90;;
32196;SDS011;18697;42.770;23.400;2024-03-23T09:29:18;11.90;;;7.78;;
32196;SDS011;18697;42.770;23.400;2024-03-23T09:31:44;11.10;;;7.45;;
32196;SDS011;18697;42.770;23.400;2024-03-23T09:34:10;10.95;;;7.25;;
32196;SDS011;18697;42.770;23.400;2024-03-23T09:36:35;10.18;;;6.72;;
32196;SDS011;18697;42.770;23.400;2024-03-23T09:39:00;11.32;;;7.28;;
32196;SDS011;18697;42.770;23.400;2024-03-23T09:41:26;11.82;;;6.82;;
32196;SDS011;18697;42.770;23.400;2024-03-23T09:43:54;9.30;;;6.47;;
32196;SDS011;18697;42.770;23.400;2024-03-23T09:46:20;10.82;;;6.93;;
32196;SDS011;18697;42.770;23.400;2024-03-23T09:48:46;9.45;;;6.68;;
32196;SDS011;18697;42.770;23.400;2024-03-23T09:51:12;9.70;;;7.15;;
32196;SDS011;18697;42.770;23.400;2024-03-23T09:53:37;12.02;;;6.45;;
32196;SDS011;18697;42.770;23.400;2024-03-23T09:56:03;10.68;;;7.30;;
32196;SDS011;18697;42.770;23.400;2024-03-23T09:58:29;10.85;;;6.35;;
32196;SDS011;18697;42.770;23.400;2024-03-23T10:00:54;8.95;;;6.38;;
32196;SDS011;18697;42.770;23.400;2024-03-23T10:03:20;7.07;;;5.95;;
32196;SDS011;18697;42.770;23.400;2024-03-23T10:05:45;8.55;;;6.07;;
32196;SDS011;18697;42.770;23.400;2024-03-23T10:10:39;10.85;;;6.43;;
32196;SDS011;18697;42.770;23.400;2024-03-23T10:13:04;10.90;;;6.43;;
32196;SDS011;18697;42.770;23.400;2024-03-23T10:15:30;12.13;;;7.78;;
32196;SDS011;18697;42.770;23.400;2024-03-23T10:17:59;12.63;;;6.72;;
32196;SDS011;18697;42.770;23.400;2024-03-23T10:23:32;12.43;;;6.72;;
32196;SDS011;18697;42.770;23.400;2024-03-23T10:28:55;8.50;;;5.75;;
32196;SDS011;18697;42.770;23.400;2024-03-23T10:31:26;7.57;;;5.57;;
32196;SDS011;18697;42.770;23.400;2024-03-23T10:33:57;9.10;;;5.20;;
32196;SDS011;18697;42.770;23.400;2024-03-23T10:36:23;11.25;;;7.18;;
32196;SDS011;18697;42.770;23.400;2024-03-23T10:38:51;11.00;;;5.75;;
32196;SDS011;18697;42.770;23.400;2024-03-23T10:41:17;7.85;;;5.15;;
32196;SDS011;18697;42.770;23.400;2024-03-23T10:43:44;18.27;;;9.55;;
32196;SDS011;18697;42.770;23.400;2024-03-23T10:46:11;14.00;;;6.55;;
32196;SDS011;18697;42.770;23.400;2024-03-23T10:48:36;9.48;;;5.00;;
32196;SDS011;18697;42.770;23.400;2024-03-23T10:51:03;10.40;;;5.53;;
32196;SDS011;18697;42.770;23.400;2024-03-23T10:53:29;6.50;;;4.00;;
32196;SDS011;18697;42.770;23.400;2024-03-23T10:55:57;10.90;;;4.95;;
32196;SDS011;18697;42.770;23.400;2024-03-23T10:58:24;15.27;;;5.32;;
32196;SDS011;18697;42.770;23.400;2024-03-23T11:00:55;10.68;;;5.40;;
32196;SDS011;18697;42.770;23.400;2024-03-23T11:03:36;7.97;;;4.18;;
32196;SDS011;18697;42.770;23.400;2024-03-23T11:06:03;12.63;;;4.90;;
32196;SDS011;18697;42.770;23.400;2024-03-23T11:08:36;5.97;;;3.05;;
32196;SDS011;18697;42.770;23.400;2024-03-23T11:11:18;37.38;;;5.22;;
32196;SDS011;18697;42.770;23.400;2024-03-23T11:13:49;7.68;;;4.18;;
32196;SDS011;18697;42.770;23.400;2024-03-23T11:16:16;6.07;;;3.10;;
32196;SDS011;18697;42.770;23.400;2024-03-23T11:22:02;5.43;;;3.55;;
32196;SDS011;18697;42.770;23.400;2024-03-23T11:24:29;10.80;;;3.78;;
32196;SDS011;18697;42.770;23.400;2024-03-23T11:26:55;9.13;;;3.90;;
32196;SDS011;18697;42.770;23.400;2024-03-23T11:29:20;12.00;;;4.40;;
32196;SDS011;18697;42.770;23.400;2024-03-23T11:31:55;10.20;;;3.63;;
32196;SDS011;18697;42.770;23.400;2024-03-23T11:34:21;12.65;;;4.97;;
32196;SDS011;18697;42.770;23.400;2024-03-23T11:36:47;7.63;;;3.53;;
32196;SDS011;18697;42.770;23.400;2024-03-23T11:39:17;10.20;;;4.90;;
32196;SDS011;18697;42.770;23.400;2024-03-23T11:46:48;8.98;;;3.80;;
32196;SDS011;18697;42.770;23.400;2024-03-23T11:51:47;9.02;;;3.75;;
32196;SDS011;18697;42.770;23.400;2024-03-23T11:54:13;12.77;;;3.92;;
32196;SDS011;18697;42.770;23.400;2024-03-23T11:56:38;6.10;;;3.85;;
32196;SDS011;18697;42.770;23.400;2024-03-23T11:59:03;9.35;;;4.15;;
32196;SDS011;18697;42.770;23.400;2024-03-23T12:01:29;6.75;;;3.75;;
32196;SDS011;18697;42.770;23.400;2024-03-23T12:03:54;5.50;;;3.53;;
32196;SDS011;18697;42.770;23.400;2024-03-23T12:06:20;10.90;;;4.00;;
32196;SDS011;18697;42.770;23.400;2024-03-23T12:08:45;7.57;;;4.28;;
32196;SDS011;18697;42.770;23.400;2024-03-23T12:11:11;5.40;;;3.40;;
32196;SDS011;18697;42.770;23.400;2024-03-23T12:13:38;8.15;;;3.60;;
32196;SDS011;18697;42.770;23.400;2024-03-23T12:16:10;9.23;;;3.80;;
32196;SDS011;18697;42.770;23.400;2024-03-23T12:18:37;6.15;;;3.67;;
32196;SDS011;18697;42.770;23.400;2024-03-23T12:21:03;8.75;;;3.75;;
32196;SDS011;18697;42.770;23.400;2024-03-23T12:23:29;8.63;;;3.35;;
32196;SDS011;18697;42.770;23.400;2024-03-23T12:25:54;6.75;;;3.78;;
32196;SDS011;18697;42.770;23.400;2024-03-23T12:28:20;6.32;;;3.75;;
32196;SDS011;18697;42.770;23.400;2024-03-23T12:30:45;11.43;;;3.78;;
32196;SDS011;18697;42.770;23.400;2024-03-23T12:33:10;8.60;;;3.00;;
32196;SDS011;18697;42.770;23.400;2024-03-23T12:35:36;8.07;;;3.53;;
32196;SDS011;18697;42.770;23.400;2024-03-23T12:38:01;12.80;;;3.42;;
32196;SDS011;18697;42.770;23.400;2024-03-23T12:40:28;6.50;;;3.95;;
32196;SDS011;18697;42.770;23.400;2024-03-23T12:42:53;6.15;;;2.85;;
32196;SDS011;18697;42.770;23.400;2024-03-23T12:45:19;4.63;;;3.15;;
32196;SDS011;18697;42.770;23.400;2024-03-23T12:47:44;8.88;;;3.70;;
32196;SDS011;18697;42.770;23.400;2024-03-23T12:50:10;8.45;;;3.05;;
32196;SDS011;18697;42.770;23.400;2024-03-23T12:52:36;5.03;;;3.42;;
32196;SDS011;18697;42.770;23.400;2024-03-23T12:55:02;5.35;;;3.10;;
32196;SDS011;18697;42.770;23.400;2024-03-23T12:57:30;6.55;;;2.95;;
32196;SDS011;18697;42.770;23.400;2024-03-23T12:59:56;9.10;;;3.95;;
32196;SDS011;18697;42.770;23.400;2024-03-23T13:02:21;6.63;;;3.70;;
32196;SDS011;18697;42.770;23.400;2024-03-23T13:04:51;7.35;;;3.58;;
32196;SDS011;18697;42.770;23.400;2024-03-23T13:07:18;7.90;;;3.78;;
32196;SDS011;18697;42.770;23.400;2024-03-23T13:09:44;7.22;;;3.08;;
32196;SDS011;18697;42.770;23.400;2024-03-23T13:12:10;8.32;;;3.70;;
32196;SDS011;18697;42.770;23.400;2024-03-23T13:14:37;6.35;;;3.53;;
32196;SDS011;18697;42.770;23.400;2024-03-23T13:17:06;4.25;;;3.00;;
32196;SDS011;18697;42.770;23.400;2024-03-23T13:19:32;4.38;;;2.50;;
32196;SDS011;18697;42.770;23.400;2024-03-23T13:21:58;5.03;;;2.38;;
32196;SDS011;18697;42.770;23.400;2024-03-23T13:24:25;3.50;;;2.42;;
32196;SDS011;18697;42.770;23.400;2024-03-23T13:26:51;4.10;;;2.22;;
32196;SDS011;18697;42.770;23.400;2024-03-23T13:29:18;4.57;;;2.60;;
32196;SDS011;18697;42.770;23.400;2024-03-23T13:31:44;7.68;;;2.92;;
32196;SDS011;18697;42.770;23.400;2024-03-23T13:34:10;4.40;;;2.60;;
32196;SDS011;18697;42.770;23.400;2024-03-23T13:36:35;4.18;;;2.55;;
32196;SDS011;18697;42.770;23.400;2024-03-23T13:39:03;4.10;;;2.03;;
32196;SDS011;18697;42.770;23.400;2024-03-23T13:41:36;2.63;;;2.03;;
32196;SDS011;18697;42.770;23.400;2024-03-23T13:44:05;3.28;;;2.10;;
32196;SDS011;18697;42.770;23.400;2024-03-23T13:46:31;2.72;;;1.83;;
32196;SDS011;18697;42.770;23.400;2024-03-23T13:48:56;3.42;;;1.63;;
32196;SDS011;18697;42.770;23.400;2024-03-23T13:51:25;9.07;;;1.83;;
32196;SDS011;18697;42.770;23.400;2024-03-23T13:53:52;4.60;;;1.48;;
32196;SDS011;18697;42.770;23.400;2024-03-23T13:56:19;4.70;;;2.17;;
32196;SDS011;18697;42.770;23.400;2024-03-23T13:58:44;3.47;;;1.42;;
32196;SDS011;18697;42.770;23.400;2024-03-23T14:01:12;4.50;;;1.45;;
32196;SDS011;18697;42.770;23.400;2024-03-23T14:03:40;4.18;;;1.70;;
32196;SDS011;18697;42.770;23.400;2024-03-23T14:06:06;3.58;;;1.65;;
32196;SDS011;18697;42.770;23.400;2024-03-23T14:08:33;7.13;;;2.53;;
32196;SDS011;18697;42.770;23.400;2024-03-23T14:11:00;3.78;;;1.85;;
32196;SDS011;18697;42.770;23.400;2024-03-23T14:13:27;14.40;;;8.63;;
32196;SDS011;18697;42.770;23.400;2024-03-23T14:15:53;15.85;;;8.93;;
32196;SDS011;18697;42.770;23.400;2024-03-23T14:18:18;9.75;;;5.95;;
32196;SDS011;18697;42.770;23.400;2024-03-23T14:20:44;3.17;;;2.30;;
32196;SDS011;18697;42.770;23.400;2024-03-23T14:23:09;2.20;;;1.60;;
32196;SDS011;18697;42.770;23.400;2024-03-23T14:25:34;3.85;;;1.80;;
32196;SDS011;18697;42.770;23.400;2024-03-23T14:28:00;2.35;;;1.20;;
32196;SDS011;18697;42.770;23.400;2024-03-23T14:30:25;3.80;;;2.08;;
32196;SDS011;18697;42.770;23.400;2024-03-23T14:32:51;4.32;;;2.33;;
32196;SDS011;18697;42.770;23.400;2024-03-23T14:35:16;5.57;;;2.28;;
32196;SDS011;18697;42.770;23.400;2024-03-23T14:37:41;3.30;;;2.60;;
32196;SDS011;18697;42.770;23.400;2024-03-23T14:40:07;3.78;;;2.00;;
32196;SDS011;18697;42.770;23.400;2024-03-23T14:42:33;3.80;;;1.58;;
32196;SDS011;18697;42.770;23.400;2024-03-23T14:44:59;3.92;;;1.90;;
32196;SDS011;18697;42.770;23.400;2024-03-23T14:47:24;2.80;;;1.90;;
32196;SDS011;18697;42.770;23.400;2024-03-23T14:49:50;1.85;;;1.40;;
32196;SDS011;18697;42.770;23.400;2024-03-23T14:52:16;1.75;;;1.55;;
32196;SDS011;18697;42.770;23.400;2024-03-23T14:54:42;4.40;;;1.65;;
32196;SDS011;18697;42.770;23.400;2024-03-23T14:57:08;3.20;;;1.95;;
32196;SDS011;18697;42.770;23.400;2024-03-23T14:59:34;4.65;;;1.40;;
32196;SDS011;18697;42.770;23.400;2024-03-23T15:02:00;3.38;;;1.88;;
32196;SDS011;18697;42.770;23.400;2024-03-23T15:04:25;3.72;;;2.55;;
32196;SDS011;18697;42.770;23.400;2024-03-23T15:06:50;7.78;;;1.88;;
32196;SDS011;18697;42.770;23.400;2024-03-23T15:09:16;4.28;;;1.45;;
32196;SDS011;18697;42.770;23.400;2024-03-23T15:11:42;5.25;;;1.85;;
32196;SDS011;18697;42.770;23.400;2024-03-23T15:14:07;1.75;;;1.35;;
32196;SDS011;18697;42.770;23.400;2024-03-23T15:16:33;3.35;;;2.05;;
32196;SDS011;18697;42.770;23.400;2024-03-23T15:18:58;4.15;;;3.03;;
32196;SDS011;18697;42.770;23.400;2024-03-23T15:21:24;3.25;;;2.40;;
32196;SDS011;18697;42.770;23.400;2024-03-23T15:23:49;158.73;;;76.97;;
32196;SDS011;18697;42.770;23.400;2024-03-23T15:26:15;168.88;;;90.25;;
32196;SDS011;18697;42.770;23.400;2024-03-23T15:28:41;42.33;;;21.35;;
32196;SDS011;18697;42.770;23.400;2024-03-23T15:31:19;9.52;;;4.13;;
32196;SDS011;18697;42.770;23.400;2024-03-23T15:33:45;6.10;;;2.50;;
32196;SDS011;18697;42.770;23.400;2024-03-23T15:36:10;9.77;;;3.88;;
32196;SDS011;18697;42.770;23.400;2024-03-23T15:38:35;5.07;;;2.40;;